createdAt,value
2023-04-22T00:02:56.814Z,8.48
2023-04-22T00:05:44.947Z,8.47
2023-04-22T00:08:31.572Z,8.55
2023-04-22T00:11:18.412Z,8.50
2023-04-22T00:14:04.861Z,8.48
2023-04-22T00:16:50.455Z,8.36
2023-04-22T00:19:37.506Z,8.41
2023-04-22T00:22:23.798Z,8.41
2023-04-22T00:25:09.871Z,8.40
2023-04-22T00:27:56.942Z,8.44
2023-04-22T00:30:43.698Z,8.45
2023-04-22T00:33:29.586Z,8.49
2023-04-22T00:36:16.287Z,8.54
2023-04-22T00:39:02.587Z,8.50
2023-04-22T00:41:49.818Z,8.62
2023-04-22T00:44:36.388Z,8.74
2023-04-22T00:47:26.791Z,8.72
2023-04-22T00:50:13.037Z,8.66
2023-04-22T00:52:59.226Z,8.72
2023-04-22T00:55:45.649Z,8.69
2023-04-22T00:58:31.595Z,8.68
2023-04-22T01:01:17.467Z,8.44
2023-04-22T01:04:04.603Z,8.66
2023-04-22T01:06:51.969Z,8.77
2023-04-22T01:09:40.062Z,8.76
2023-04-22T01:12:26.582Z,8.96
2023-04-22T01:15:13.098Z,9.13
2023-04-22T01:18:01.340Z,9.67
2023-04-22T01:20:48.003Z,10.04
2023-04-22T01:23:36.025Z,10.30
2023-04-22T01:26:22.450Z,10.49
2023-04-22T01:29:08.025Z,10.61
2023-04-22T01:31:54.221Z,10.74
2023-04-22T01:34:39.747Z,10.76
2023-04-22T01:37:25.925Z,10.70
2023-04-22T01:40:12.648Z,10.53
2023-04-22T01:42:59.960Z,10.39
2023-04-22T01:45:46.060Z,10.09
2023-04-22T01:48:32.558Z,9.88
2023-04-22T01:51:20.864Z,9.72
2023-04-22T01:54:06.765Z,9.53
2023-04-22T01:56:53.805Z,9.70
2023-04-22T01:59:40.274Z,9.59
2023-04-22T02:02:26.665Z,9.52
2023-04-22T02:05:12.773Z,9.32
2023-04-22T02:07:58.784Z,8.82
2023-04-22T02:10:44.613Z,9.07
2023-04-22T02:13:41.008Z,9.26
2023-04-22T02:16:27.383Z,9.27
2023-04-22T02:19:13.144Z,9.10
2023-04-22T02:21:59.941Z,8.77
2023-04-22T02:24:46.493Z,9.06
2023-04-22T02:27:32.524Z,9.13
2023-04-22T02:30:18.757Z,9.36
2023-04-22T02:33:04.881Z,9.04
2023-04-22T02:35:50.629Z,9.16
2023-04-22T02:38:38.733Z,8.88
2023-04-22T02:41:24.444Z,8.89
2023-04-22T02:44:10.549Z,8.80
2023-04-22T02:46:56.650Z,8.92
2023-04-22T02:49:42.998Z,8.61
2023-04-22T02:52:28.973Z,8.95
2023-04-22T02:55:15.690Z,8.77
2023-04-22T02:58:01.924Z,8.64
2023-04-22T03:00:47.947Z,8.57
2023-04-22T03:03:34.123Z,8.50
2023-04-22T03:06:20.884Z,8.48
2023-04-22T03:09:07.423Z,8.23
2023-04-22T03:11:53.656Z,8.31
2023-04-22T03:14:39.228Z,8.27
2023-04-22T03:17:26.205Z,8.31
2023-04-22T03:20:12.263Z,8.38
2023-04-22T03:22:58.277Z,8.48
2023-04-22T03:25:45.446Z,8.45
2023-04-22T03:28:31.209Z,8.33
2023-04-22T03:31:16.797Z,8.35
2023-04-22T03:34:03.917Z,8.27
2023-04-22T03:36:50.905Z,7.95
2023-04-22T03:39:38.466Z,7.97
2023-04-22T03:42:25.138Z,7.76
2023-04-22T03:45:11.283Z,7.93
2023-04-22T03:48:02.383Z,7.81
2023-04-22T03:50:56.450Z,7.67
2023-04-22T03:53:43.554Z,7.77
2023-04-22T03:56:35.212Z,7.63
2023-04-22T03:59:21.350Z,7.52
2023-04-22T04:02:08.920Z,7.55
2023-04-22T04:04:54.951Z,7.30
2023-04-22T04:07:42.611Z,7.43
2023-04-22T04:10:28.827Z,7.38
2023-04-22T04:13:17.386Z,7.45
2023-04-22T04:16:17.372Z,7.43
2023-04-22T04:19:07.018Z,7.43
2023-04-22T04:21:55.884Z,7.44
2023-04-22T04:24:44.188Z,7.49
2023-04-22T04:27:39.396Z,7.53
2023-04-22T04:30:26.565Z,7.67
2023-04-22T04:33:17.148Z,7.55
2023-04-22T04:36:05.984Z,7.83
2023-04-22T04:38:55.653Z,7.84
2023-04-22T04:41:43.521Z,8.07
2023-04-22T04:44:32.027Z,8.30
2023-04-22T04:47:20.434Z,8.48
2023-04-22T04:50:07.256Z,8.45
2023-04-22T04:52:54.291Z,8.78
2023-04-22T04:55:45.497Z,9.05
2023-04-22T04:58:40.839Z,9.20
2023-04-22T05:01:31.667Z,9.36
2023-04-22T05:04:23.354Z,9.50
2023-04-22T05:07:09.166Z,9.63
2023-04-22T05:09:57.523Z,9.71
2023-04-22T05:12:46.366Z,9.96
2023-04-22T05:15:36.995Z,10.06
2023-04-22T05:18:23.012Z,10.14
2023-04-22T05:21:09.460Z,10.15
2023-04-22T05:23:55.504Z,10.42
2023-04-22T05:26:42.177Z,10.50
2023-04-22T05:29:35.402Z,10.68
2023-04-22T05:32:22.976Z,10.90
2023-04-22T05:35:11.486Z,11.08
2023-04-22T05:37:58.075Z,11.19
2023-04-22T05:40:44.328Z,11.27
2023-04-22T05:43:33.161Z,11.48
2023-04-22T05:46:25.992Z,11.55
2023-04-22T05:49:12.731Z,11.91
2023-04-22T05:52:18.673Z,11.95
2023-04-22T05:55:34.613Z,12.20
2023-04-22T05:58:21.535Z,12.21
2023-04-22T06:01:13.757Z,12.33
2023-04-22T06:04:02.893Z,12.51
2023-04-22T06:06:49.969Z,12.45
2023-04-22T06:09:35.387Z,12.65
2023-04-22T06:12:22.243Z,12.66
2023-04-22T06:15:08.771Z,12.92
2023-04-22T06:17:55.437Z,13.10
2023-04-22T06:20:41.668Z,13.07
2023-04-22T06:23:28.604Z,13.20
2023-04-22T06:26:15.009Z,13.34
2023-04-22T06:29:05.311Z,13.49
2023-04-22T06:31:53.346Z,13.57
2023-04-22T06:34:39.943Z,13.77
2023-04-22T06:37:27.033Z,13.58
2023-04-22T06:40:14.825Z,13.91
2023-04-22T06:43:29.984Z,14.05
2023-04-22T06:46:28.316Z,14.21
2023-04-22T06:49:44.973Z,14.27
2023-04-22T06:52:43.848Z,14.32
2023-04-22T06:55:29.720Z,14.37
2023-04-22T06:58:16.826Z,14.54
2023-04-22T07:01:03.426Z,14.63
2023-04-22T07:03:50.846Z,14.89
2023-04-22T07:06:38.486Z,14.74
2023-04-22T07:09:26.649Z,15.24
2023-04-22T07:12:12.880Z,15.47
2023-04-22T07:14:58.736Z,15.55
2023-04-22T07:17:44.350Z,15.58
2023-04-22T07:20:30.606Z,15.39
2023-04-22T07:23:16.312Z,15.79
2023-04-22T07:26:02.922Z,15.89
2023-04-22T07:28:49.029Z,15.89
2023-04-22T07:31:38.113Z,16.03
2023-04-22T07:34:23.948Z,16.23
2023-04-22T07:37:09.916Z,16.27
2023-04-22T07:39:55.553Z,16.32
2023-04-22T07:42:42.193Z,16.41
2023-04-22T07:45:28.266Z,16.41
2023-04-22T07:48:14.854Z,16.25
2023-04-22T07:51:00.887Z,16.47
2023-04-22T07:53:47.109Z,16.56
2023-04-22T07:56:33.157Z,16.47
2023-04-22T07:59:19.451Z,16.62
2023-04-22T08:02:05.174Z,16.60
2023-04-22T08:04:52.312Z,16.46
2023-04-22T08:07:38.497Z,16.53
2023-04-22T08:10:25.389Z,16.82
2023-04-22T08:13:11.232Z,16.83
2023-04-22T08:16:03.602Z,16.92
2023-04-22T08:18:49.583Z,16.98
2023-04-22T08:21:37.435Z,17.02
2023-04-22T08:24:23.020Z,16.97
2023-04-22T08:27:08.982Z,17.09
2023-04-22T08:29:54.744Z,17.05
2023-04-22T08:32:40.991Z,17.00
2023-04-22T08:35:26.375Z,17.07
2023-04-22T08:38:12.277Z,17.14
2023-04-22T08:40:59.008Z,17.17
2023-04-22T08:43:46.455Z,17.32
2023-04-22T08:46:32.417Z,17.55
2023-04-22T08:49:19.325Z,17.55
2023-04-22T08:52:04.986Z,17.61
2023-04-22T08:54:52.661Z,17.61
2023-04-22T08:57:39.024Z,17.54
2023-04-22T09:00:25.346Z,17.76
2023-04-22T09:03:11.922Z,17.75
2023-04-22T09:05:58.942Z,17.91
2023-04-22T09:08:45.119Z,17.81
2023-04-22T09:11:32.385Z,18.02
2023-04-22T09:14:17.900Z,18.05
2023-04-22T09:17:04.302Z,18.17
2023-04-22T09:20:00.509Z,18.08
2023-04-22T09:22:47.835Z,17.92
2023-04-22T09:25:35.833Z,18.12
2023-04-22T09:28:21.784Z,18.17
2023-04-22T09:31:07.068Z,18.26
2023-04-22T09:33:56.272Z,18.10
2023-04-22T09:36:43.655Z,18.24
2023-04-22T09:39:29.735Z,18.29
2023-04-22T09:42:15.749Z,18.38
2023-04-22T09:45:02.267Z,18.33
2023-04-22T09:47:48.149Z,18.43
2023-04-22T09:50:34.543Z,18.42
2023-04-22T09:53:21.527Z,18.33
2023-04-22T09:56:07.927Z,18.31
2023-04-22T09:58:53.474Z,18.33
2023-04-22T10:01:41.520Z,18.37
2023-04-22T10:04:28.390Z,18.40
2023-04-22T10:07:15.894Z,18.40
2023-04-22T10:10:03.190Z,18.44
2023-04-22T10:12:49.860Z,18.59
2023-04-22T10:15:39.275Z,18.67
2023-04-22T10:18:26.888Z,18.61
2023-04-22T10:21:12.896Z,18.61
2023-04-22T10:24:00.138Z,18.71
2023-04-22T10:26:56.688Z,18.68
2023-04-22T10:29:43.690Z,18.57
2023-04-22T10:32:31.027Z,18.65
2023-04-22T10:35:17.653Z,18.66
2023-04-22T10:38:07.668Z,18.58
2023-04-22T10:41:00.303Z,18.56
2023-04-22T10:43:58.164Z,18.50
2023-04-22T10:46:50.334Z,18.54
2023-04-22T10:49:36.255Z,18.42
2023-04-22T10:52:29.580Z,18.51
2023-04-22T10:55:15.473Z,18.35
2023-04-22T10:58:01.418Z,18.28
2023-04-22T11:00:54.248Z,18.40
2023-04-22T11:03:40.793Z,18.42
2023-04-22T11:06:28.087Z,18.31
2023-04-22T11:09:14.276Z,18.25
2023-04-22T11:12:38.609Z,18.13
2023-04-22T11:15:24.671Z,18.07
2023-04-22T11:18:13.845Z,18.14
2023-04-22T11:21:06.452Z,18.14
2023-04-22T11:23:53.353Z,18.18
2023-04-22T11:26:41.006Z,18.02
2023-04-22T11:29:26.792Z,17.92
2023-04-22T11:32:12.748Z,18.00
2023-04-22T11:34:58.710Z,18.00
2023-04-22T11:37:53.315Z,18.01
2023-04-22T11:40:45.947Z,17.96
2023-04-22T11:43:32.819Z,17.99
2023-04-22T11:46:29.211Z,17.67
2023-04-22T11:49:16.252Z,17.76
2023-04-22T11:52:01.764Z,17.81
2023-04-22T11:54:48.065Z,18.15
2023-04-22T11:57:37.245Z,18.21
2023-04-22T12:00:25.073Z,18.04
2023-04-22T12:03:18.868Z,18.17
2023-04-22T12:06:05.325Z,18.11
2023-04-22T12:08:54.248Z,18.02
2023-04-22T12:11:40.485Z,18.05
2023-04-22T12:14:33.795Z,17.85
2023-04-22T12:17:24.550Z,17.83
2023-04-22T12:20:13.493Z,17.99
2023-04-22T12:22:59.262Z,17.96
2023-04-22T12:25:44.861Z,17.91
2023-04-22T12:28:31.250Z,18.02
2023-04-22T12:31:18.096Z,17.92
2023-04-22T12:34:04.555Z,17.89
2023-04-22T12:36:50.804Z,17.91
2023-04-22T12:39:38.030Z,17.89
2023-04-22T12:42:23.749Z,17.85
2023-04-22T12:45:10.548Z,17.90
2023-04-22T12:47:58.016Z,17.83
2023-04-22T12:50:44.786Z,17.87
2023-04-22T12:53:30.819Z,17.86
2023-04-22T12:56:17.004Z,17.88
2023-04-22T12:59:03.525Z,17.95
2023-04-22T13:01:49.590Z,17.84
2023-04-22T13:04:35.791Z,17.98
2023-04-22T13:07:22.156Z,18.09
2023-04-22T13:10:14.321Z,17.97
2023-04-22T13:15:54.602Z,17.83
2023-04-22T13:18:40.989Z,17.61
2023-04-22T13:21:27.835Z,17.78
2023-04-22T13:24:13.961Z,17.97
2023-04-22T13:27:00.300Z,18.02
2023-04-22T13:29:46.331Z,17.90
2023-04-22T13:32:31.715Z,17.85
2023-04-22T13:35:18.485Z,17.82
2023-04-22T13:38:05.091Z,17.82
2023-04-22T13:40:51.644Z,17.81
2023-04-22T13:43:37.938Z,17.88
2023-04-22T13:46:25.046Z,17.86
2023-04-22T13:49:11.015Z,17.77
2023-04-22T13:51:57.793Z,17.71
2023-04-22T13:54:43.126Z,17.78
2023-04-22T13:57:29.323Z,17.98
2023-04-22T14:00:15.098Z,17.97
2023-04-22T14:03:01.700Z,17.98
2023-04-22T14:05:47.494Z,18.00
2023-04-22T14:08:33.718Z,18.15
2023-04-22T14:11:19.564Z,18.18
2023-04-22T14:14:05.737Z,18.18
2023-04-22T14:16:51.998Z,18.11
2023-04-22T14:19:40.039Z,18.21
2023-04-22T14:22:25.988Z,18.16
2023-04-22T14:25:11.851Z,18.16
2023-04-22T14:27:58.015Z,18.14
2023-04-22T14:30:44.279Z,18.13
2023-04-22T14:33:30.057Z,18.01
2023-04-22T14:36:17.150Z,18.12
2023-04-22T14:39:02.485Z,18.15
2023-04-22T14:41:49.160Z,18.18
2023-04-22T14:44:35.215Z,18.20
2023-04-22T14:47:21.466Z,18.23
2023-04-22T14:50:07.440Z,18.23
2023-04-22T14:52:54.530Z,18.25
2023-04-22T14:55:40.269Z,18.18
2023-04-22T14:58:27.138Z,18.22
2023-04-22T15:01:13.016Z,18.22
2023-04-22T15:03:59.455Z,18.23
2023-04-22T15:06:45.568Z,18.12
2023-04-22T15:09:31.317Z,18.21
2023-04-22T15:12:17.070Z,18.16
2023-04-22T15:15:03.709Z,18.10
2023-04-22T15:17:50.513Z,18.06
2023-04-22T15:20:36.334Z,18.06
2023-04-22T15:23:24.701Z,17.93
2023-04-22T15:26:10.421Z,17.99
2023-04-22T15:28:56.167Z,18.00
2023-04-22T15:31:42.420Z,18.01
2023-04-22T15:34:28.133Z,18.02
2023-04-22T15:37:15.391Z,17.96
2023-04-22T15:40:01.403Z,17.94
2023-04-22T15:42:47.585Z,17.98
2023-04-22T15:45:34.524Z,17.99
2023-04-22T15:48:20.597Z,18.00
2023-04-22T15:51:06.548Z,18.01
2023-04-22T15:53:59.277Z,18.00
2023-04-22T15:56:45.116Z,17.99
2023-04-22T15:59:31.173Z,17.95
2023-04-22T16:02:16.959Z,17.93
2023-04-22T16:05:04.205Z,17.92
2023-04-22T16:07:50.350Z,17.87
2023-04-22T16:10:36.646Z,17.86
2023-04-22T16:13:22.262Z,17.79
2023-04-22T16:16:09.056Z,17.80
2023-04-22T16:18:55.044Z,17.75
2023-04-22T16:21:41.645Z,17.72
2023-04-22T16:24:27.974Z,17.70
2023-04-22T16:27:17.003Z,17.68
2023-04-22T16:30:03.950Z,17.62
2023-04-22T16:32:50.911Z,17.57
2023-04-22T16:35:38.125Z,17.55
2023-04-22T16:38:25.092Z,17.53
2023-04-22T16:41:11.821Z,17.52
2023-04-22T16:43:57.790Z,17.48
2023-04-22T16:46:43.495Z,17.46
2023-04-22T16:49:29.521Z,17.27
2023-04-22T16:52:15.074Z,17.29
2023-04-22T16:55:01.067Z,17.32
2023-04-22T16:57:50.740Z,17.26
2023-04-22T17:00:37.282Z,17.23
2023-04-22T17:03:23.518Z,17.09
2023-04-22T17:06:09.504Z,17.12
2023-04-22T17:08:54.854Z,17.10
2023-04-22T17:11:40.634Z,17.07
2023-04-22T17:14:26.226Z,16.99
2023-04-22T17:17:12.781Z,16.96
2023-04-22T17:19:58.800Z,16.88
2023-04-22T17:22:44.991Z,16.83
2023-04-22T17:25:31.300Z,16.64
2023-04-22T17:28:17.637Z,16.71
2023-04-22T17:31:04.235Z,16.63
2023-04-22T17:33:51.516Z,16.53
2023-04-22T17:36:37.104Z,16.38
2023-04-22T17:39:23.437Z,16.36
2023-04-22T17:42:09.687Z,16.28
2023-04-22T17:44:55.875Z,16.18
2023-04-22T17:47:41.612Z,16.08
2023-04-22T17:50:27.337Z,16.03
2023-04-22T17:53:12.880Z,15.95
2023-04-22T17:55:59.179Z,15.85
2023-04-22T17:58:46.171Z,15.77
2023-04-22T18:01:32.768Z,15.62
2023-04-22T18:04:18.637Z,15.56
2023-04-22T18:07:05.620Z,15.44
2023-04-22T18:09:51.684Z,15.23
2023-04-22T18:12:38.702Z,15.25
2023-04-22T18:15:24.318Z,15.05
2023-04-22T18:18:10.859Z,15.06
2023-04-22T18:20:57.120Z,14.89
2023-04-22T18:23:43.152Z,14.86
2023-04-22T18:26:29.088Z,14.77
2023-04-22T18:29:15.481Z,14.66
2023-04-22T18:32:01.122Z,14.49
2023-04-22T18:34:47.274Z,14.49
2023-04-22T18:37:34.573Z,14.40
2023-04-22T18:40:21.228Z,14.33
2023-04-22T18:43:06.855Z,14.24
2023-04-22T18:45:53.057Z,14.19
2023-04-22T18:48:39.222Z,14.10
2023-04-22T18:51:25.472Z,13.98
2023-04-22T18:54:12.152Z,13.86
2023-04-22T18:56:59.517Z,13.83
2023-04-22T18:59:45.516Z,13.76
2023-04-22T19:02:32.269Z,13.60
2023-04-22T19:05:19.147Z,13.57
2023-04-22T19:08:06.982Z,13.41
2023-04-22T19:10:53.950Z,13.42
2023-04-22T19:13:39.914Z,13.36
2023-04-22T19:16:26.563Z,13.18
2023-04-22T19:19:13.715Z,13.21
2023-04-22T19:22:00.242Z,13.18
2023-04-22T19:24:47.118Z,13.13
2023-04-22T19:27:34.824Z,13.06
2023-04-22T19:30:23.015Z,13.01
2023-04-22T19:33:08.993Z,12.96
2023-04-22T19:35:54.883Z,12.80
2023-04-22T19:38:40.622Z,12.89
2023-04-22T19:41:26.764Z,12.83
2023-04-22T19:44:12.731Z,12.76
2023-04-22T19:46:58.694Z,12.71
2023-04-22T19:49:44.980Z,12.68
2023-04-22T19:52:33.230Z,12.50
2023-04-22T19:55:18.943Z,12.53
2023-04-22T19:58:05.534Z,12.46
2023-04-22T20:00:51.219Z,12.37
2023-04-22T20:03:37.593Z,12.19
2023-04-22T20:06:23.931Z,12.27
2023-04-22T20:09:10.592Z,12.24
2023-04-22T20:11:56.955Z,12.19
2023-04-22T20:14:44.078Z,12.11
2023-04-22T20:17:31.001Z,12.09
2023-04-22T20:20:18.325Z,12.03
2023-04-22T20:23:10.557Z,12.04
2023-04-22T20:25:58.010Z,12.05
2023-04-22T20:28:49.508Z,12.01
2023-04-22T20:31:35.725Z,11.90
2023-04-22T20:34:21.918Z,12.00
2023-04-22T20:37:10.459Z,11.90
2023-04-22T20:39:56.539Z,12.00
2023-04-22T20:42:43.373Z,12.03
2023-04-22T20:45:30.061Z,12.01
2023-04-22T20:48:16.640Z,11.98
2023-04-22T20:51:03.274Z,11.90
2023-04-22T20:53:51.360Z,11.90
2023-04-22T20:56:39.153Z,11.81
2023-04-22T20:59:25.336Z,11.81
2023-04-22T21:02:12.243Z,11.81
2023-04-22T21:04:59.350Z,11.80
2023-04-22T21:07:47.532Z,11.67
2023-04-22T21:10:33.715Z,11.77
2023-04-22T21:13:19.918Z,11.74
2023-04-22T21:16:11.243Z,11.73
2023-04-22T21:19:01.342Z,11.78
2023-04-22T21:21:48.018Z,11.81
2023-04-22T21:24:37.341Z,11.87
2023-04-22T21:27:23.686Z,11.82
2023-04-22T21:30:09.982Z,11.89
2023-04-22T21:32:55.850Z,11.92
2023-04-22T21:35:41.879Z,11.87
2023-04-22T21:38:27.745Z,11.81
2023-04-22T21:41:13.789Z,11.96
2023-04-22T21:44:00.984Z,11.96
2023-04-22T21:46:47.684Z,12.02
2023-04-22T21:49:34.758Z,12.02
2023-04-22T21:52:21.501Z,12.00
2023-04-22T21:55:08.734Z,12.05
2023-04-22T21:57:55.896Z,12.04
2023-04-22T22:00:42.524Z,12.04
2023-04-22T22:03:29.325Z,12.03
2023-04-22T22:06:16.464Z,12.01
2023-04-22T22:09:03.776Z,11.98
2023-04-22T22:11:50.324Z,11.80
2023-04-22T22:14:38.840Z,11.92
2023-04-22T22:17:26.148Z,11.91
2023-04-22T22:20:16.828Z,11.86
2023-04-22T22:23:03.544Z,11.84
2023-04-22T22:25:50.101Z,11.78
2023-04-22T22:28:38.520Z,11.68
2023-04-22T22:31:28.031Z,11.76
2023-04-22T22:34:16.022Z,11.71
2023-04-22T22:37:02.603Z,11.70
2023-04-22T22:39:49.768Z,11.68
2023-04-22T22:42:36.450Z,11.62
2023-04-22T22:45:23.848Z,11.63
2023-04-22T22:48:10.823Z,11.58
2023-04-22T22:50:57.851Z,11.56
2023-04-22T22:53:45.236Z,11.42
2023-04-22T22:56:35.216Z,11.52
2023-04-22T22:59:23.997Z,11.48
2023-04-22T23:02:11.756Z,11.46
2023-04-22T23:04:58.339Z,11.44
2023-04-22T23:07:44.902Z,11.42
2023-04-22T23:10:30.600Z,11.27
2023-04-22T23:13:16.478Z,11.37
2023-04-22T23:16:02.128Z,11.37
2023-04-22T23:18:48.311Z,11.33
2023-04-22T23:21:35.028Z,11.31
2023-04-22T23:24:22.082Z,11.29
2023-04-22T23:27:08.012Z,11.27
2023-04-22T23:29:54.423Z,11.24
2023-04-22T23:32:41.127Z,11.16
2023-04-22T23:35:27.586Z,11.14
2023-04-22T23:38:13.516Z,11.11
2023-04-22T23:41:00.643Z,11.05
2023-04-22T23:43:48.750Z,11.02
2023-04-22T23:46:36.858Z,11.00
2023-04-22T23:49:24.467Z,10.97
2023-04-22T23:52:13.285Z,10.93
2023-04-22T23:54:59.889Z,10.89
2023-04-22T23:57:47.443Z,10.88
